Pagina principale
METAR-TAF:

METAR-TAF

Aeroporti :

Aeroporto di Milano-Linate

Milano, Italia

latitudine: 45-26N, longitudine: 009-17E, altezza: 107 m

Osservazione

Il bollettino è stato emesso 30 minuti fa, alle 22:20 UTC
Vento 4 kt da sud-ovest, variando fra sud/sud-ovest e ovest
Temperature 24°C
Umidità 50%
Pressione 1013 hPa
Visibilità 10 km o più
nessuna nube inferiore a 1500 m e nessun cumulonembo

METAR: LIML 162220Z 22004KT 200V270 CAVOK 24/13 Q1013 NOSIG

Ora: 00:50 (22:50 UTC)

Previsione

Il bollettino è stato emesso 5 ore e 50 minuti fa, alle 17:00 UTC
Previsione valida dal 16 alle 18 UTC al 17 alle 18 UTC
Vento 5 kt da direzioni variabili
Visibilità 10 km o più
nessuna nube inferiore a 1500 m e nessun cumulonembo
Temporaneamente
dal 17 alle 11 UTC al 17 alle 16 UTC
Vento 10 kt da est

TAF: LIML 161700Z 1618/1718 VRB05KT CAVOK TEMPO 1711/1716 10010KT

Osservazioni e previsioni meteorologiche di più di 4000 aeroporti (messaggi METAR e TAF).

Le stazioni disponibili sono rappresentate dai dischi gialli e rossi sulla carta.

Puntare il mouse per vedere il nome della stazione.

Clicca sopra per visualizzare le osservazioni e previsioni meteorologiche.

Per cambiare la mappa : fare clic sui pulsanti verdi con una croce nera per ingrandire, il pulsante verde con un trattino per diminuire, o sulla freccia verde per le mappe adiacenti.


METAR-TAF: